Derbent, Russia
Current Conditions -  °F | °C
As of 1:00 PM on Friday 24 Oct 2014 (Local Time) from URML Reporting Station
Broken Clouds Broken Clouds  
Wind Chill: 61°   Ceiling: 10000
Heat Index: 61°   Visibility: 6mi
Dew Point: 54°   Wind: 16mph
Humidity: 77%   Direction: 340°NNW
Pressure: 30.09"   Gusts: NA
Location:  42.06°N, 48.29°E
Report Text: URML 241000Z 34007MPS 9999 SCT040 BKN100 16/12 Q1019 TEMPO 2000BR SCT007 RMK QFE764/1018
Loading
Personal Weather Stations






























Interactive Weather Map
Tropical Storm Tracking
New forecast layout! Learn more

10-Day Weather Forecast

Advertisements
Track Severe Weather on mobile